createdAt,value
2018-08-13T00:01:34.708Z,97429.36
2018-08-13T00:04:33.938Z,97425.92
2018-08-13T00:07:02.175Z,97421.55
2018-08-13T00:09:35.836Z,97421.95
2018-08-13T00:12:04.139Z,97412.57
2018-08-13T00:14:32.514Z,97419.56
2018-08-13T00:17:00.769Z,97411.35
2018-08-13T00:19:29.038Z,97402.37
2018-08-13T00:21:57.345Z,97407.16
2018-08-13T00:24:25.665Z,97402.55
2018-08-13T00:26:53.899Z,97406.16
2018-08-13T00:29:22.178Z,97394.97
2018-08-13T00:31:50.587Z,97396.55
2018-08-13T00:34:18.902Z,97388.74
2018-08-13T00:36:47.135Z,97388.73
2018-08-13T00:39:15.350Z,97390.53
2018-08-13T00:41:43.556Z,97396.89
2018-08-13T00:44:11.790Z,97393.91
2018-08-13T00:46:40.043Z,97391.25
2018-08-13T00:49:08.315Z,97390.83
2018-08-13T00:51:36.614Z,97385.70
2018-08-13T00:54:04.939Z,97389.09
2018-08-13T00:56:33.175Z,97388.33
2018-08-13T00:59:01.456Z,97384.12
2018-08-13T01:01:29.767Z,97385.48
2018-08-13T01:03:58.027Z,97378.62
2018-08-13T01:06:26.227Z,97367.64
2018-08-13T01:08:54.459Z,97362.25
2018-08-13T01:11:22.711Z,97360.84
2018-08-13T01:13:50.966Z,97366.13
2018-08-13T01:16:19.286Z,97363.55
2018-08-13T01:18:47.475Z,97359.36
2018-08-13T01:21:15.662Z,97361.53
2018-08-13T01:23:43.939Z,97357.11
2018-08-13T01:26:12.146Z,97359.09
2018-08-13T01:28:40.342Z,97356.06
2018-08-13T01:31:08.588Z,97356.64
2018-08-13T01:33:36.882Z,97363.60
2018-08-13T01:36:05.104Z,97361.38
2018-08-13T01:38:33.343Z,97356.20
2018-08-13T01:41:01.547Z,97356.78
2018-08-13T01:43:29.819Z,97351.61
2018-08-13T01:45:58.179Z,97341.17
2018-08-13T01:48:26.359Z,97344.62
2018-08-13T01:50:54.570Z,97350.78
2018-08-13T01:53:22.896Z,97348.58
2018-08-13T01:55:51.139Z,97351.58
2018-08-13T01:58:19.335Z,97351.35
2018-08-13T02:00:47.563Z,97355.78
2018-08-13T02:03:15.771Z,97353.16
2018-08-13T02:05:44.022Z,97351.77
2018-08-13T02:08:12.555Z,97357.12
2018-08-13T02:10:40.767Z,97353.34
2018-08-13T02:13:09.004Z,97357.69
2018-08-13T02:15:37.279Z,97345.53
2018-08-13T02:18:05.486Z,97347.09
2018-08-13T02:20:33.790Z,97351.36
2018-08-13T02:23:02.022Z,97349.70
2018-08-13T02:25:30.715Z,97349.37
2018-08-13T02:27:58.980Z,97345.59
2018-08-13T02:30:27.190Z,97335.80
2018-08-13T02:32:55.391Z,97332.80
2018-08-13T02:35:23.594Z,97332.38
2018-08-13T02:37:51.802Z,97326.77
2018-08-13T02:40:20.051Z,97324.39
2018-08-13T02:42:48.299Z,97320.80
2018-08-13T02:45:16.507Z,97321.41
2018-08-13T02:47:44.727Z,97318.56
2018-08-13T02:50:13.909Z,97317.98
2018-08-13T02:52:42.234Z,97314.60
2018-08-13T02:55:11.310Z,97325.70
2018-08-13T02:57:39.532Z,97322.84
2018-08-13T03:00:09.611Z,97326.17
2018-08-13T03:02:38.323Z,97327.02
2018-08-13T03:05:08.413Z,97326.45
2018-08-13T03:07:36.751Z,97329.94
2018-08-13T03:10:07.342Z,97317.67
2018-08-13T03:12:35.648Z,97316.31
2018-08-13T03:15:04.774Z,97311.70
2018-08-13T03:17:33.053Z,97310.72
2018-08-13T03:20:01.895Z,97314.91
2018-08-13T03:22:30.967Z,97320.33
2018-08-13T03:25:00.382Z,97317.32
2018-08-13T03:27:28.886Z,97316.14
2018-08-13T03:29:57.380Z,97322.73
2018-08-13T03:32:25.595Z,97328.31
2018-08-13T03:34:53.926Z,97318.36
2018-08-13T03:37:22.167Z,97320.53
2018-08-13T03:39:50.375Z,97314.89
2018-08-13T03:42:18.659Z,97311.94
2018-08-13T03:44:46.946Z,97303.75
2018-08-13T03:47:15.169Z,97303.73
2018-08-13T03:49:43.388Z,97297.98
2018-08-13T03:52:11.866Z,97296.11
2018-08-13T03:54:40.151Z,97296.89
2018-08-13T03:57:08.366Z,97294.69
2018-08-13T03:59:36.595Z,97287.46
2018-08-13T04:02:04.943Z,97284.46
2018-08-13T04:04:33.179Z,97287.15
2018-08-13T04:07:01.731Z,97281.14
2018-08-13T04:09:29.958Z,97286.45
2018-08-13T04:11:58.236Z,97275.32
2018-08-13T04:14:26.547Z,97266.38
2018-08-13T04:17:05.179Z,97268.92
2018-08-13T04:19:34.210Z,97268.91
2018-08-13T04:22:03.027Z,97267.69
2018-08-13T04:24:31.367Z,97276.66
2018-08-13T04:27:00.158Z,97265.31
2018-08-13T04:29:28.379Z,97263.73
2018-08-13T04:31:56.623Z,97264.33
2018-08-13T04:34:24.930Z,97258.50
2018-08-13T04:36:54.211Z,97252.33
2018-08-13T04:39:22.511Z,97249.54
2018-08-13T04:41:50.726Z,97242.34
2018-08-13T04:44:19.030Z,97243.73
2018-08-13T04:46:47.282Z,97245.92
2018-08-13T04:49:15.499Z,97257.11
2018-08-13T04:51:43.726Z,97261.72
2018-08-13T04:54:11.927Z,97258.17
2018-08-13T04:56:40.130Z,97259.55
2018-08-13T04:59:08.336Z,97257.55
2018-08-13T05:01:36.534Z,97256.91
2018-08-13T05:04:04.746Z,97265.13
2018-08-13T05:06:32.939Z,97265.78
2018-08-13T05:09:01.171Z,97261.03
2018-08-13T05:11:29.392Z,97259.06
2018-08-13T05:13:57.896Z,97254.90
2018-08-13T05:16:26.138Z,97256.91
2018-08-13T05:18:54.440Z,97257.31
2018-08-13T05:21:22.697Z,97251.73
2018-08-13T05:23:50.895Z,97252.92
2018-08-13T05:26:23.701Z,97248.61
2018-08-13T05:28:52.456Z,97248.43
2018-08-13T05:31:20.654Z,97250.85
2018-08-13T05:33:48.995Z,97257.08
2018-08-13T05:36:17.256Z,97257.28
2018-08-13T05:38:45.521Z,97263.45
2018-08-13T05:41:14.055Z,97262.06
2018-08-13T05:43:42.294Z,97266.64
2018-08-13T05:46:10.503Z,97276.20
2018-08-13T05:48:38.727Z,97286.59
2018-08-13T05:51:06.949Z,97283.99
2018-08-13T05:53:35.366Z,97284.39
2018-08-13T05:56:03.634Z,97285.59
2018-08-13T05:58:31.874Z,97287.18
2018-08-13T06:01:00.084Z,97280.00
2018-08-13T06:03:28.307Z,97288.62
2018-08-13T06:05:56.518Z,97293.39
2018-08-13T06:08:24.817Z,97292.78
2018-08-13T06:10:53.020Z,97293.55
2018-08-13T06:13:21.218Z,97304.58
2018-08-13T06:15:49.434Z,97301.33
2018-08-13T06:18:17.767Z,97305.95
2018-08-13T06:20:45.867Z,97305.50
2018-08-13T06:23:14.078Z,97297.84
2018-08-13T06:25:42.338Z,97298.74
2018-08-13T06:28:10.568Z,97297.08
2018-08-13T06:30:38.787Z,97306.38
2018-08-13T06:33:07.041Z,97313.13
2018-08-13T06:35:35.227Z,97311.31
2018-08-13T06:38:03.454Z,97308.33
2018-08-13T06:40:31.654Z,97319.23
2018-08-13T06:42:59.866Z,97320.30
2018-08-13T06:45:28.084Z,97322.81
2018-08-13T06:47:56.290Z,97320.78
2018-08-13T06:50:24.509Z,97325.80
2018-08-13T06:52:52.738Z,97337.20
2018-08-13T06:55:20.943Z,97343.39
2018-08-13T06:57:49.186Z,97334.45
2018-08-13T07:00:17.434Z,97346.71
2018-08-13T07:02:45.667Z,97346.12
2018-08-13T07:05:13.918Z,97349.75
2018-08-13T07:07:42.278Z,97342.78
2018-08-13T07:10:12.862Z,97347.53
2018-08-13T07:12:42.838Z,97361.20
2018-08-13T07:15:11.634Z,97381.03
2018-08-13T07:17:39.952Z,97388.43
2018-08-13T07:20:13.735Z,97394.91
2018-08-13T07:22:42.568Z,97404.36
2018-08-13T07:25:10.958Z,97413.21
2018-08-13T07:27:40.033Z,97418.02
2018-08-13T07:30:11.854Z,97419.77
2018-08-13T07:32:40.070Z,97423.74
2018-08-13T07:35:08.806Z,97430.19
2018-08-13T07:37:37.106Z,97436.64
2018-08-13T07:40:07.459Z,97439.48
2018-08-13T07:42:35.696Z,97445.61
2018-08-13T07:45:04.941Z,97445.78
2018-08-13T07:47:33.242Z,97452.38
2018-08-13T07:50:01.555Z,97446.48
2018-08-13T07:52:29.768Z,97449.08
2018-08-13T07:54:57.995Z,97452.05
2018-08-13T07:57:26.331Z,97447.20
2018-08-13T07:59:54.577Z,97437.92
2018-08-13T08:02:22.807Z,97435.05
2018-08-13T08:04:51.058Z,97436.73
2018-08-13T08:07:19.710Z,97442.47
2018-08-13T08:09:47.963Z,97440.81
2018-08-13T08:12:16.266Z,97438.20
2018-08-13T08:14:44.507Z,97440.44
2018-08-13T08:17:12.723Z,97432.52
2018-08-13T08:19:40.942Z,97440.16
2018-08-13T08:22:09.248Z,97453.84
2018-08-13T08:24:37.472Z,97454.02
2018-08-13T08:27:06.576Z,97458.70
2018-08-13T08:29:35.103Z,97453.80
2018-08-13T08:32:03.519Z,97463.37
2018-08-13T08:34:31.822Z,97471.77
2018-08-13T08:37:00.150Z,97469.02
2018-08-13T08:39:28.485Z,97474.08
2018-08-13T08:41:56.769Z,97473.41
2018-08-13T08:44:25.084Z,97471.23
2018-08-13T08:46:53.399Z,97473.16
2018-08-13T08:49:21.663Z,97478.23
2018-08-13T08:51:50.043Z,97490.58
2018-08-13T08:54:18.247Z,97491.96
2018-08-13T08:56:46.449Z,97492.97
2018-08-13T08:59:14.716Z,97485.91
2018-08-13T09:01:42.951Z,97489.00
2018-08-13T09:04:11.159Z,97489.55
2018-08-13T09:06:39.404Z,97501.69
2018-08-13T09:09:09.730Z,97508.48
2018-08-13T09:11:37.991Z,97521.09
2018-08-13T09:14:06.711Z,97533.18
2018-08-13T09:16:34.947Z,97526.55
2018-08-13T09:19:14.591Z,97527.93
2018-08-13T09:21:42.916Z,97529.59
2018-08-13T09:24:22.379Z,97537.39
2018-08-13T09:27:01.779Z,97538.73
2018-08-13T09:29:41.262Z,97539.65
2018-08-13T09:32:29.210Z,97540.25
2018-08-13T09:35:31.851Z,97540.81
2018-08-13T09:38:00.073Z,97553.23
2018-08-13T09:40:29.286Z,97549.24
2018-08-13T09:42:57.626Z,97553.70
2018-08-13T09:45:26.131Z,97553.86
2018-08-13T09:47:54.427Z,97558.79
2018-08-13T09:50:22.783Z,97560.05
2018-08-13T09:52:51.300Z,97558.88
2018-08-13T09:55:19.991Z,97554.72
2018-08-13T09:57:48.910Z,97550.34
2018-08-13T10:00:23.814Z,97545.91
2018-08-13T10:02:51.994Z,97541.41
2018-08-13T10:05:20.215Z,97533.09
2018-08-13T10:07:48.460Z,97530.80
2018-08-13T10:10:17.425Z,97532.09
2018-08-13T10:12:46.109Z,97534.38
2018-08-13T10:15:15.016Z,97533.14
2018-08-13T10:17:43.317Z,97533.61
2018-08-13T10:20:13.531Z,97528.14
2018-08-13T10:22:42.071Z,97523.36
2018-08-13T10:25:10.923Z,97525.55
2018-08-13T10:27:39.239Z,97526.78
2018-08-13T10:30:09.038Z,97531.71
2018-08-13T10:32:37.354Z,97541.08
2018-08-13T10:35:05.818Z,97531.41
2018-08-13T10:37:34.097Z,97540.64
2018-08-13T10:40:02.255Z,97541.47
2018-08-13T10:42:30.491Z,97538.87
2018-08-13T10:44:58.780Z,97532.03
2018-08-13T10:47:26.971Z,97538.11
2018-08-13T10:49:55.170Z,97531.53
2018-08-13T10:52:23.396Z,97518.97
2018-08-13T10:54:51.642Z,97532.61
2018-08-13T10:57:19.887Z,97528.99
2018-08-13T10:59:48.103Z,97527.11
2018-08-13T11:02:16.335Z,97530.70
2018-08-13T11:04:44.556Z,97526.45
2018-08-13T11:07:12.816Z,97524.53
2018-08-13T11:09:41.063Z,97514.36
2018-08-13T11:13:12.619Z,97511.38
2018-08-13T11:15:40.823Z,97523.19
2018-08-13T11:18:09.044Z,97513.50
2018-08-13T11:20:37.263Z,97506.09
2018-08-13T11:23:05.639Z,97478.31
2018-08-13T11:25:33.871Z,97474.09
2018-08-13T11:28:03.111Z,97485.83
2018-08-13T11:30:31.349Z,97492.92
2018-08-13T11:32:59.569Z,97504.11
2018-08-13T11:35:27.766Z,97493.53
2018-08-13T11:37:55.991Z,97485.73
2018-08-13T11:40:24.198Z,97492.91
2018-08-13T11:42:52.459Z,97496.25
2018-08-13T11:45:20.658Z,97492.64
2018-08-13T11:51:20.490Z,97470.84
2018-08-13T11:53:48.702Z,97473.55
2018-08-13T11:56:16.972Z,97466.62
2018-08-13T11:58:45.115Z,97462.84
2018-08-13T12:01:13.366Z,97474.93
2018-08-13T12:03:41.591Z,97474.82
2018-08-13T12:06:09.810Z,97461.39
2018-08-13T12:08:38.035Z,97458.02
2018-08-13T12:11:06.275Z,97459.58
2018-08-13T12:13:34.506Z,97458.70
2018-08-13T12:16:02.782Z,97462.50
2018-08-13T12:18:31.071Z,97459.59
2018-08-13T12:20:59.279Z,97464.83
2018-08-13T12:23:27.498Z,97460.27
2018-08-13T12:25:55.747Z,97458.58
2018-08-13T12:28:23.979Z,97458.86
2018-08-13T12:30:52.183Z,97455.13
2018-08-13T12:33:20.427Z,97447.79
2018-08-13T12:35:48.647Z,97445.89
2018-08-13T12:38:16.851Z,97445.55
2018-08-13T12:40:45.086Z,97446.09
2018-08-13T12:43:13.354Z,97434.84
2018-08-13T12:45:41.563Z,97434.20
2018-08-13T12:48:09.752Z,97432.80
2018-08-13T12:50:38.030Z,97428.62
2018-08-13T12:53:06.275Z,97426.87
2018-08-13T12:55:34.515Z,97423.92
2018-08-13T12:58:02.771Z,97426.19
2018-08-13T13:00:30.987Z,97424.56
2018-08-13T13:02:59.342Z,97422.09
2018-08-13T13:05:27.551Z,97427.94
2018-08-13T13:07:55.768Z,97433.73
2018-08-13T13:10:24.003Z,97441.68
2018-08-13T13:12:52.234Z,97442.78
2018-08-13T13:15:21.143Z,97448.93
2018-08-13T13:17:49.391Z,97438.50
2018-08-13T13:20:19.670Z,97433.15
2018-08-13T13:22:48.349Z,97426.81
2018-08-13T13:25:16.967Z,97425.48
2018-08-13T13:27:45.203Z,97425.20
2018-08-13T13:30:14.875Z,97431.66
2018-08-13T13:32:43.371Z,97412.09
2018-08-13T13:35:13.112Z,97411.31
2018-08-13T13:37:41.370Z,97404.71
2018-08-13T13:40:11.605Z,97405.59
2018-08-13T13:42:40.019Z,97397.81
2018-08-13T13:45:09.227Z,97394.79
2018-08-13T13:47:37.496Z,97381.69
2018-08-13T13:50:06.302Z,97385.59
2018-08-13T13:52:34.603Z,97379.28
2018-08-13T13:55:02.882Z,97385.98
2018-08-13T13:57:31.295Z,97376.50
2018-08-13T13:59:59.519Z,97383.81
2018-08-13T14:02:27.723Z,97384.25
2018-08-13T14:04:55.942Z,97381.73
2018-08-13T14:07:24.162Z,97378.15
2018-08-13T14:09:52.426Z,97376.98
2018-08-13T14:12:20.635Z,97371.64
2018-08-13T14:14:48.886Z,97370.45
2018-08-13T14:17:17.169Z,97370.82
2018-08-13T14:19:45.423Z,97364.67
2018-08-13T14:22:13.935Z,97358.30
2018-08-13T14:24:42.154Z,97359.62
2018-08-13T14:27:10.446Z,97355.91
2018-08-13T14:29:38.703Z,97352.50
2018-08-13T14:32:06.930Z,97355.63
2018-08-13T14:34:35.225Z,97359.51
2018-08-13T14:37:03.432Z,97359.19
2018-08-13T14:39:31.650Z,97361.05
2018-08-13T14:41:59.891Z,97369.91
2018-08-13T14:44:28.136Z,97374.80
2018-08-13T14:46:56.391Z,97371.91
2018-08-13T14:49:24.615Z,97371.53
2018-08-13T14:51:52.898Z,97376.61
2018-08-13T14:54:21.115Z,97393.86
2018-08-13T14:56:49.427Z,97394.74
2018-08-13T14:59:17.667Z,97379.80
2018-08-13T15:01:45.899Z,97379.31
2018-08-13T15:04:14.119Z,97374.27
2018-08-13T15:06:42.367Z,97376.42
2018-08-13T15:09:11.251Z,97377.33
2018-08-13T15:11:40.251Z,97380.59
2018-08-13T15:14:10.682Z,97374.38
2018-08-13T15:16:39.099Z,97375.99
2018-08-13T15:19:10.119Z,97370.33
2018-08-13T15:21:38.287Z,97370.33
2018-08-13T15:24:06.555Z,97368.30
2018-08-13T15:26:34.812Z,97364.89
2018-08-13T15:29:03.090Z,97358.26
2018-08-13T15:31:31.368Z,97364.29
2018-08-13T15:33:59.607Z,97361.69
2018-08-13T15:36:27.940Z,97362.32
2018-08-13T15:38:56.175Z,97355.97
2018-08-13T15:41:24.442Z,97355.97
2018-08-13T15:43:52.670Z,97359.64
2018-08-13T15:46:21.026Z,97360.65
2018-08-13T15:48:49.258Z,97363.09
2018-08-13T15:51:17.512Z,97358.93
2018-08-13T15:53:45.739Z,97360.45
2018-08-13T15:56:13.963Z,97349.98
2018-08-13T15:58:42.195Z,97343.06
2018-08-13T16:01:10.415Z,97342.84
2018-08-13T16:03:38.644Z,97337.83
2018-08-13T16:06:06.867Z,97347.20
2018-08-13T16:08:35.087Z,97347.89
2018-08-13T16:11:03.335Z,97344.78
2018-08-13T16:13:31.546Z,97344.52
2018-08-13T16:20:48.275Z,97345.21
2018-08-13T16:23:16.511Z,97338.93
2018-08-13T16:25:44.739Z,97332.48
2018-08-13T16:28:13.024Z,97324.30
2018-08-13T16:30:41.316Z,97315.76
2018-08-13T16:33:09.943Z,97323.94
2018-08-13T16:35:38.168Z,97318.80
2018-08-13T16:38:06.404Z,97313.13
2018-08-13T16:40:34.619Z,97311.98
2018-08-13T16:43:02.843Z,97310.73
2018-08-13T16:45:31.091Z,97311.36
2018-08-13T16:47:59.330Z,97314.56
2018-08-13T16:50:30.354Z,97309.33
2018-08-13T16:52:59.079Z,97313.08
2018-08-13T16:55:28.646Z,97312.22
2018-08-13T16:57:57.478Z,97301.28
2018-08-13T17:00:27.527Z,97299.12
2018-08-13T17:02:56.052Z,97305.88
2018-08-13T17:05:24.299Z,97302.72
2018-08-13T17:07:52.670Z,97310.70
2018-08-13T17:10:25.800Z,97310.75
2018-08-13T17:12:54.715Z,97308.95
2018-08-13T17:15:23.694Z,97310.24
2018-08-13T17:17:53.490Z,97315.31
2018-08-13T17:20:24.886Z,97315.92
2018-08-13T17:22:53.192Z,97324.91
2018-08-13T17:25:21.419Z,97321.92
2018-08-13T17:27:50.094Z,97317.03
2018-08-13T17:30:20.461Z,97319.13
2018-08-13T17:32:50.339Z,97322.95
2018-08-13T17:35:21.383Z,97320.55
2018-08-13T17:37:50.275Z,97322.41
2018-08-13T17:40:20.255Z,97330.22
2018-08-13T17:42:48.769Z,97332.63
2018-08-13T17:45:16.943Z,97335.05
2018-08-13T17:47:45.151Z,97338.61
2018-08-13T17:50:18.791Z,97342.35
2018-08-13T17:52:47.055Z,97345.92
2018-08-13T17:55:15.762Z,97349.48
2018-08-13T17:57:44.367Z,97349.09
2018-08-13T18:00:16.095Z,97350.70
2018-08-13T18:02:44.658Z,97349.33
2018-08-13T18:05:15.086Z,97351.55
2018-08-13T18:07:43.752Z,97355.38
2018-08-13T18:10:13.900Z,97357.48
2018-08-13T18:12:42.143Z,97366.11
2018-08-13T18:15:13.020Z,97369.19
2018-08-13T18:17:41.290Z,97377.19
2018-08-13T18:20:10.370Z,97376.94
2018-08-13T18:22:38.695Z,97384.34
2018-08-13T18:25:08.370Z,97381.72
2018-08-13T18:27:37.612Z,97376.34
2018-08-13T18:30:09.339Z,97376.17
2018-08-13T18:32:37.547Z,97375.16
2018-08-13T18:35:06.095Z,97384.97
2018-08-13T18:37:34.461Z,97392.97
2018-08-13T18:40:02.787Z,97388.20
2018-08-13T18:42:31.032Z,97388.61
2018-08-13T18:44:59.270Z,97399.01
2018-08-13T18:47:27.531Z,97400.22
2018-08-13T18:49:55.730Z,97401.61
2018-08-13T18:52:23.990Z,97416.81
2018-08-13T18:54:52.192Z,97419.41
2018-08-13T18:57:20.490Z,97425.16
2018-08-13T18:59:48.735Z,97430.76
2018-08-13T19:02:16.984Z,97430.94
2018-08-13T19:04:45.330Z,97436.94
2018-08-13T19:07:13.506Z,97443.13
2018-08-13T19:09:41.886Z,97441.55
2018-08-13T19:12:10.278Z,97441.95
2018-08-13T19:14:38.737Z,97449.72
2018-08-13T19:17:07.366Z,97446.55
2018-08-13T19:19:37.573Z,97454.95
2018-08-13T19:22:06.132Z,97455.13
2018-08-13T19:24:34.435Z,97448.13
2018-08-13T19:27:02.766Z,97447.89
2018-08-13T19:29:31.225Z,97448.73
2018-08-13T19:31:59.495Z,97450.71
2018-08-13T19:34:27.796Z,97460.14
2018-08-13T19:36:56.419Z,97457.75
2018-08-13T19:39:24.671Z,97456.77
2018-08-13T19:41:52.991Z,97460.33
2018-08-13T19:44:21.286Z,97458.98
2018-08-13T19:46:49.510Z,97458.60
2018-08-13T19:49:17.816Z,97456.83
2018-08-13T19:51:46.571Z,97450.42
2018-08-13T19:54:14.899Z,97443.62
2018-08-13T19:56:43.228Z,97448.22
2018-08-13T19:59:11.495Z,97446.23
2018-08-13T20:01:39.855Z,97448.82
2018-08-13T20:04:08.190Z,97449.23
2018-08-13T20:06:36.491Z,97453.44
2018-08-13T20:09:07.547Z,97449.63
2018-08-13T20:11:36.131Z,97454.78
2018-08-13T20:14:04.415Z,97460.00
2018-08-13T20:16:32.776Z,97457.58
2018-08-13T20:19:01.119Z,97457.58
2018-08-13T20:21:29.347Z,97463.77
2018-08-13T20:23:57.667Z,97463.17
2018-08-13T20:26:25.978Z,97465.73
2018-08-13T20:28:54.223Z,97471.34
2018-08-13T20:31:22.519Z,97473.96
2018-08-13T20:33:50.766Z,97471.93
2018-08-13T20:36:18.986Z,97471.39
2018-08-13T20:38:47.224Z,97471.94
2018-08-13T20:41:15.450Z,97475.31
2018-08-13T20:43:43.768Z,97470.28
2018-08-13T20:46:12.005Z,97474.13
2018-08-13T20:48:40.311Z,97480.16
2018-08-13T20:51:08.643Z,97481.95
2018-08-13T20:53:36.915Z,97484.98
2018-08-13T20:56:05.634Z,97484.39
2018-08-13T20:58:33.943Z,97487.19
2018-08-13T21:01:03.055Z,97482.38
2018-08-13T21:03:31.280Z,97481.59
2018-08-13T21:05:59.575Z,97487.56
2018-08-13T21:08:27.874Z,97486.79
2018-08-13T21:10:56.150Z,97483.59
2018-08-13T21:13:24.459Z,97490.80
2018-08-13T21:15:52.777Z,97498.98
2018-08-13T21:18:20.948Z,97498.39
2018-08-13T21:20:49.243Z,97497.36
2018-08-13T21:23:17.527Z,97500.56
2018-08-13T21:25:45.842Z,97497.36
2018-08-13T21:28:14.111Z,97499.56
2018-08-13T21:30:42.362Z,97507.38
2018-08-13T21:33:10.720Z,97513.55
2018-08-13T21:35:39.009Z,97504.34
2018-08-13T21:38:07.376Z,97512.16
2018-08-13T21:40:35.648Z,97510.95
2018-08-13T21:43:03.939Z,97516.72
2018-08-13T21:45:32.223Z,97516.92
2018-08-13T21:48:00.510Z,97518.73
2018-08-13T21:50:28.835Z,97519.14
2018-08-13T21:52:57.090Z,97517.94
2018-08-13T21:55:25.298Z,97526.32
2018-08-13T21:57:53.571Z,97532.27
2018-08-13T22:00:28.134Z,97529.69
2018-08-13T22:02:57.752Z,97529.03
2018-08-13T22:05:26.015Z,97534.23
2018-08-13T22:07:54.330Z,97532.00
2018-08-13T22:10:22.607Z,97534.44
2018-08-13T22:12:50.858Z,97544.01
2018-08-13T22:15:25.035Z,97547.11
2018-08-13T22:17:54.261Z,97546.34
2018-08-13T22:20:22.695Z,97550.17
2018-08-13T22:22:50.998Z,97549.14
2018-08-13T22:25:38.070Z,97549.77
2018-08-13T22:28:07.455Z,97551.95
2018-08-13T22:30:35.853Z,97550.75
2018-08-13T22:33:04.122Z,97554.10
2018-08-13T22:35:32.462Z,97559.28
2018-08-13T22:38:00.719Z,97560.42
2018-08-13T22:40:28.978Z,97557.55
2018-08-13T22:42:57.296Z,97564.23
2018-08-13T22:45:56.512Z,97562.04
2018-08-13T22:48:24.770Z,97567.31
2018-08-13T22:50:53.137Z,97567.68
2018-08-13T22:53:21.510Z,97573.22
2018-08-13T22:55:49.756Z,97573.58
2018-08-13T22:58:18.083Z,97573.84
2018-08-13T23:00:46.363Z,97576.44
2018-08-13T23:03:14.632Z,97585.07
2018-08-13T23:05:42.971Z,97583.90
2018-08-13T23:08:11.402Z,97587.09
2018-08-13T23:10:39.613Z,97589.09
2018-08-13T23:13:16.204Z,97587.72
2018-08-13T23:15:44.514Z,97590.91
2018-08-13T23:18:12.800Z,97594.49
2018-08-13T23:20:41.027Z,97602.05
2018-08-13T23:23:09.477Z,97605.43
2018-08-13T23:25:38.076Z,97604.70
2018-08-13T23:28:08.162Z,97608.39
2018-08-13T23:30:36.400Z,97609.01
2018-08-13T23:33:05.150Z,97618.13
2018-08-13T23:35:33.422Z,97613.40
2018-08-13T23:38:01.657Z,97614.49
2018-08-13T23:40:29.983Z,97616.72
2018-08-13T23:42:58.216Z,97614.66
2018-08-13T23:45:28.776Z,97611.08
2018-08-13T23:47:57.051Z,97605.66
2018-08-13T23:50:26.226Z,97608.67
2018-08-13T23:52:56.091Z,97606.08
2018-08-13T23:55:33.977Z,97605.35
2018-08-13T23:58:02.734Z,97605.80
